Aviation Digital Data Service (ADDS)

Output produced by TAFs form (0556 UTC 01 November 2014)
found at http://aviationweather.gov/adds/tafs/
 
KDMN 010526Z 0106/0206 07011KT P6SM FEW060 SCT200 
     FM011900 19010G18KT P6SM SCT200 
     FM020200 24009KT P6SM SCT200